Time;durP1;ratioP1;P1;durP2;ratioP2;P2;SDS_P1;SDS_P2;PMS_P1;PMS_P2;Temp;Humidity;BMP_temperature;BMP_pressure;BME280_temperature;BME280_humidity;BME280_pressure;Samples;Min_cycle;Max_cycle;Signal;HPM_P1;HPM_P2
2022/08/16 00:01:54;;;;;;;8.77;7.20;;;;;;;25.02;100.00;99424.41;5070389;28;20205;-79
2022/08/16 00:04:21;;;;;;;7.07;6.38;;;;;;;25.14;100.00;99441.47;5087248;28;20198;-78
2022/08/16 00:06:48;;;;;;;9.00;7.05;;;;;;;25.18;100.00;99435.88;5042676;28;20245;-79
2022/08/16 00:09:15;;;;;;;9.00;7.85;;;;;;;24.97;100.00;99433.56;5085546;28;20587;-78
2022/08/16 00:11:43;;;;;;;11.45;7.28;;;;;;;25.08;100.00;99441.78;5090521;28;20207;-78
2022/08/16 00:14:13;;;;;;;7.80;7.00;;;;;;;24.98;100.00;99425.50;5077405;28;20194;-78
2022/08/16 00:16:40;;;;;;;17.23;7.53;;;;;;;24.91;100.00;99428.56;5082955;28;20214;-79
2022/08/16 00:19:09;;;;;;;12.85;8.02;;;;;;;24.77;100.00;99426.63;5085076;28;20190;-78
2022/08/16 00:21:36;;;;;;;8.00;6.90;;;;;;;24.75;100.00;99423.22;5071420;28;20278;-77
2022/08/16 00:24:03;;;;;;;10.45;7.40;;;;;;;24.68;100.00;99411.22;5071232;28;20198;-77
2022/08/16 00:26:30;;;;;;;8.50;7.15;;;;;;;24.93;100.00;99430.22;5082657;28;20237;-78
2022/08/16 00:28:57;;;;;;;9.65;7.18;;;;;;;24.97;100.00;99423.78;5074770;28;20213;-77
2022/08/16 00:31:23;;;;;;;8.65;7.05;;;;;;;25.08;100.00;99410.78;5034891;28;20194;-77
2022/08/16 00:33:50;;;;;;;7.45;6.75;;;;;;;25.15;100.00;99420.13;5070497;28;20191;-78
2022/08/16 00:36:18;;;;;;;11.20;7.10;;;;;;;25.44;100.00;99428.28;5070566;28;20251;-79
2022/08/16 00:38:45;;;;;;;7.20;6.50;;;;;;;25.47;100.00;99418.34;5080492;28;20722;-79
2022/08/16 00:41:12;;;;;;;10.52;7.25;;;;;;;25.68;100.00;99416.31;5071628;28;20195;-79
2022/08/16 00:43:39;;;;;;;8.48;7.03;;;;;;;25.37;100.00;99422.44;5083566;28;20194;-79
2022/08/16 00:46:11;;;;;;;7.68;6.97;;;;;;;25.93;100.00;99426.38;5070917;28;20213;-77
2022/08/16 00:48:40;;;;;;;8.65;6.55;;;;;;;25.87;100.00;99427.56;5085967;28;20194;-77
2022/08/16 00:51:07;;;;;;;7.38;6.68;;;;;;;25.74;100.00;99405.34;5070759;28;20190;-77
2022/08/16 00:53:35;;;;;;;12.48;6.30;;;;;;;25.94;100.00;99434.25;5082791;28;20677;-79
2022/08/16 00:56:11;;;;;;;11.25;7.38;;;;;;;25.84;100.00;99438.38;5071337;28;20202;-79
2022/08/16 00:58:44;;;;;;;9.73;6.90;;;;;;;25.87;100.00;99432.88;5052968;28;20201;-78
2022/08/16 01:01:12;;;;;;;7.40;6.65;;;;;;;25.56;100.00;99417.00;5053052;28;20202;-81
2022/08/16 01:03:41;;;;;;;8.82;7.18;;;;;;;25.77;100.00;99437.03;5088652;28;20190;-77
2022/08/16 01:06:10;;;;;;;10.57;6.60;;;;;;;25.72;100.00;99433.75;5090564;28;20746;-77
2022/08/16 01:08:40;;;;;;;7.43;6.72;;;;;;;25.25;100.00;99407.22;5076449;28;20213;-78
2022/08/16 01:11:08;;;;;;;8.20;7.20;;;;;;;25.23;100.00;99440.94;5076776;28;20202;-78
2022/08/16 01:13:37;;;;;;;8.52;6.80;;;;;;;25.04;100.00;99425.16;5073267;28;20218;-78
2022/08/16 01:16:07;;;;;;;7.57;6.75;;;;;;;25.40;100.00;99442.69;5075861;28;20206;-78
2022/08/16 01:18:38;;;;;;;6.90;6.20;;;;;;;25.44;100.00;99433.56;5084493;28;20216;-77
2022/08/16 01:21:17;;;;;;;7.43;6.68;;;;;;;25.33;100.00;99426.22;5050321;28;20202;-77
2022/08/16 01:24:06;;;;;;;7.97;7.03;;;;;;;25.50;100.00;99438.56;5078230;28;20201;-79
2022/08/16 01:26:35;;;;;;;7.80;6.53;;;;;;;25.32;100.00;99439.59;5065820;28;20225;-77
2022/08/16 01:29:06;;;;;;;7.93;6.65;;;;;;;25.28;100.00;99428.28;5084361;28;20198;-78
2022/08/16 01:31:33;;;;;;;8.93;7.30;;;;;;;25.07;100.00;99393.19;5054252;28;20203;-77
2022/08/16 01:34:00;;;;;;;11.27;6.88;;;;;;;25.39;100.00;99446.28;5069897;28;20195;-78
2022/08/16 01:36:28;;;;;;;7.22;6.53;;;;;;;25.23;100.00;99418.84;5069922;28;20230;-78
2022/08/16 01:38:55;;;;;;;9.23;7.15;;;;;;;25.20;100.00;99454.38;5085354;28;20202;-78
2022/08/16 01:41:26;;;;;;;8.52;6.72;;;;;;;25.07;100.00;99393.19;5092497;28;20202;-77
2022/08/16 01:43:53;;;;;;;8.02;7.22;;;;;;;25.30;100.00;99436.16;5076611;28;20682;-78
2022/08/16 01:46:23;;;;;;;7.68;6.88;;;;;;;25.14;100.00;99444.97;5086814;28;20223;-77
2022/08/16 01:48:54;;;;;;;8.27;6.80;;;;;;;25.18;100.00;99446.50;5085989;28;20202;-77
2022/08/16 01:51:24;;;;;;;7.32;6.63;;;;;;;24.96;100.00;99437.16;5093781;28;20220;-77
2022/08/16 01:53:51;;;;;;;10.45;7.10;;;;;;;24.69;100.00;99435.00;5093277;28;20209;-78
2022/08/16 01:56:18;;;;;;;8.18;7.22;;;;;;;24.81;100.00;99436.13;5093178;28;20198;-77
2022/08/16 01:58:47;;;;;;;8.82;6.85;;;;;;;24.87;100.00;99427.88;5081276;28;20198;-78
2022/08/16 02:01:14;;;;;;;7.70;6.97;;;;;;;24.86;100.00;99434.16;5080287;28;20201;-77
2022/08/16 02:03:41;;;;;;;7.97;7.18;;;;;;;25.07;100.00;99411.75;5093403;28;20206;-77
2022/08/16 02:06:08;;;;;;;11.02;7.28;;;;;;;25.26;100.00;99426.63;5084257;28;20193;-78
2022/08/16 02:08:35;;;;;;;7.65;6.95;;;;;;;25.49;100.00;99437.72;5074242;28;20290;-77
2022/08/16 02:11:05;;;;;;;10.32;6.70;;;;;;;25.54;100.00;99419.72;5077766;28;20194;-79
2022/08/16 02:13:32;;;;;;;12.23;7.70;;;;;;;25.57;100.00;99445.28;5092956;28;20198;-78
2022/08/16 02:16:00;;;;;;;8.30;7.30;;;;;;;25.61;100.00;99441.50;5091010;28;20201;-77
2022/08/16 02:18:27;;;;;;;9.05;6.88;;;;;;;25.34;100.00;99409.34;5076884;28;20190;-77
2022/08/16 02:20:54;;;;;;;8.25;7.30;;;;;;;25.48;100.00;99435.97;5091517;28;20577;-77
2022/08/16 02:23:21;;;;;;;9.77;6.72;;;;;;;25.39;100.00;99435.66;5092484;28;20213;-78
2022/08/16 02:25:48;;;;;;;7.85;6.57;;;;;;;25.37;100.00;99438.38;5083234;28;20218;-78
2022/08/16 02:28:16;;;;;;;7.85;7.05;;;;;;;25.32;100.00;99440.44;5071612;28;20219;-77
2022/08/16 02:30:43;;;;;;;9.10;7.00;;;;;;;25.20;100.00;99437.59;5073176;28;20682;-78
2022/08/16 02:33:12;;;;;;;7.90;7.13;;;;;;;25.17;100.00;99439.50;5091741;28;20198;-77
2022/08/16 02:35:39;;;;;;;9.98;7.28;;;;;;;25.09;100.00;99440.84;5090160;28;20205;-77
2022/08/16 02:38:07;;;;;;;7.72;6.55;;;;;;;25.06;100.00;99439.22;5076168;28;20234;-79
2022/08/16 02:40:35;;;;;;;8.27;7.32;;;;;;;25.15;100.00;99443.16;5071874;28;20205;-78
2022/08/16 02:43:02;;;;;;;12.90;7.40;;;;;;;25.10;100.00;99443.44;5087729;28;20692;-77
2022/08/16 02:45:28;;;;;;;10.25;7.57;;;;;;;24.98;100.00;99425.50;5089494;28;20201;-76
2022/08/16 02:47:56;;;;;;;7.75;6.80;;;;;;;25.06;100.00;99457.78;5091450;28;20242;-77
2022/08/16 02:50:25;;;;;;;10.32;6.70;;;;;;;25.27;100.00;99454.91;5091173;28;20550;-76
2022/08/16 02:52:52;;;;;;;8.30;7.50;;;;;;;25.26;100.00;99477.91;5073296;28;20199;-77
2022/08/16 02:55:19;;;;;;;9.45;7.05;;;;;;;25.12;100.00;99453.94;5071724;28;20190;-80
2022/08/16 02:57:46;;;;;;;10.05;7.68;;;;;;;25.21;100.00;99473.81;5071590;28;20206;-76
2022/08/16 03:00:16;;;;;;;7.70;6.97;;;;;;;25.08;100.00;99439.97;5071730;28;20765;-77
2022/08/16 03:02:44;;;;;;;10.07;7.70;;;;;;;25.04;100.00;99461.47;5086425;28;20198;-78
2022/08/16 03:05:12;;;;;;;8.98;7.70;;;;;;;24.98;100.00;99467.94;5080368;28;20199;-78
2022/08/16 03:07:42;;;;;;;8.18;7.38;;;;;;;24.85;100.00;99469.56;5071105;28;20237;-78
2022/08/16 03:10:11;;;;;;;11.10;7.53;;;;;;;24.82;100.00;99475.00;5070720;28;20195;-78
2022/08/16 03:12:39;;;;;;;8.77;7.82;;;;;;;24.83;100.00;99471.41;5086259;28;20591;-78
2022/08/16 03:15:07;;;;;;;9.13;8.15;;;;;;;24.76;100.00;99443.47;5088062;28;20257;-78
2022/08/16 03:17:34;;;;;;;9.80;7.57;;;;;;;24.66;100.00;99445.75;5083146;28;20206;-78
2022/08/16 03:20:01;;;;;;;10.68;8.35;;;;;;;24.74;100.00;99471.88;5089677;28;20198;-78
2022/08/16 03:22:28;;;;;;;8.77;7.95;;;;;;;24.70;100.00;99459.72;5088905;28;20709;-79
2022/08/16 03:24:57;;;;;;;10.85;8.05;;;;;;;24.73;100.00;99448.94;5082207;28;20207;-78
2022/08/16 03:27:26;;;;;;;8.48;7.65;;;;;;;24.79;100.00;99482.25;5092269;28;20228;-78
2022/08/16 03:29:53;;;;;;;10.98;7.90;;;;;;;24.73;100.00;99446.28;5091274;28;20205;-75
2022/08/16 03:32:20;;;;;;;8.60;7.57;;;;;;;25.03;100.00;99473.88;5077856;28;20199;-75
2022/08/16 03:34:47;;;;;;;14.35;8.68;;;;;;;24.94;100.00;99481.44;5071271;28;20202;-75
2022/08/16 03:37:14;;;;;;;9.25;7.70;;;;;;;25.18;100.00;99480.16;5071477;28;20240;-75
2022/08/16 03:39:41;;;;;;;8.90;8.02;;;;;;;25.19;100.00;99484.50;5089810;28;20230;-75
2022/08/16 03:42:09;;;;;;;11.80;8.07;;;;;;;25.32;100.00;99472.31;5081492;28;20209;-75
2022/08/16 03:44:36;;;;;;;12.30;8.18;;;;;;;25.39;100.00;99486.09;5073463;28;20202;-75
2022/08/16 03:47:03;;;;;;;10.00;8.40;;;;;;;25.47;100.00;99491.84;5072989;28;20218;-75
2022/08/16 03:49:30;;;;;;;10.63;8.20;;;;;;;25.42;100.00;99483.25;5084196;28;20206;-75
2022/08/16 03:51:56;;;;;;;12.57;8.50;;;;;;;25.71;100.00;99489.63;5074718;28;20204;-75
2022/08/16 03:54:23;;;;;;;9.35;7.85;;;;;;;26.04;100.00;99493.88;5076333;28;20202;-75
2022/08/16 03:56:50;;;;;;;8.77;7.88;;;;;;;26.49;97.61;99486.84;5074045;28;20198;-75
2022/08/16 03:59:18;;;;;;;14.90;7.97;;;;;;;26.82;95.17;99492.84;5071925;28;20198;-75
2022/08/16 04:01:45;;;;;;;8.10;7.30;;;;;;;27.37;91.25;99494.72;5070146;28;20210;-75
2022/08/16 04:04:12;;;;;;;9.50;7.72;;;;;;;28.02;86.19;99498.50;5071855;28;20655;-75
2022/08/16 04:06:39;;;;;;;9.77;7.00;;;;;;;28.49;82.23;99504.25;5079724;28;20213;-75
2022/08/16 04:09:06;;;;;;;8.65;7.40;;;;;;;28.97;77.93;99480.47;5077519;28;20194;-75
2022/08/16 04:11:32;;;;;;;7.97;7.18;;;;;;;29.26;75.60;99495.34;5054886;28;20194;-75
2022/08/16 04:13:59;;;;;;;8.73;7.53;;;;;;;29.82;72.06;99509.94;5078637;28;20710;-75
2022/08/16 04:16:31;;;;;;;10.55;8.13;;;;;;;30.32;70.40;99508.06;5070655;28;20210;-74
2022/08/16 04:18:58;;;;;;;8.57;7.68;;;;;;;30.60;67.72;99483.63;5085151;28;20213;-75
2022/08/16 04:21:25;;;;;;;9.43;7.65;;;;;;;30.64;66.10;99503.81;5072409;28;20264;-74
2022/08/16 04:23:52;;;;;;;8.02;7.22;;;;;;;31.11;65.33;99504.66;5071430;28;20217;-74
2022/08/16 04:26:18;;;;;;;7.75;6.63;;;;;;;31.14;64.15;99504.41;5042093;28;20197;-74
2022/08/16 04:28:45;;;;;;;10.55;7.43;;;;;;;31.42;62.97;99512.84;5077124;28;20221;-72
2022/08/16 04:31:12;;;;;;;7.90;7.10;;;;;;;31.63;61.64;99510.28;5070323;28;20210;-76
2022/08/16 04:33:40;;;;;;;10.32;7.65;;;;;;;31.61;60.18;99504.16;5070722;28;20195;-74
2022/08/16 04:36:08;;;;;;;12.40;7.55;;;;;;;31.36;61.60;99501.72;5070709;28;20651;-74
2022/08/16 04:38:35;;;;;;;12.27;7.40;;;;;;;30.90;63.06;99477.69;5081366;28;20201;-75
2022/08/16 04:41:02;;;;;;;10.00;7.00;;;;;;;31.05;63.11;99503.31;5088520;28;20206;-80
2022/08/16 04:43:29;;;;;;;8.20;7.22;;;;;;;31.05;62.83;99513.16;5073596;28;20209;-75
2022/08/16 04:45:56;;;;;;;10.15;7.50;;;;;;;31.35;60.86;99516.13;5071445;28;20256;-72
2022/08/16 04:48:23;;;;;;;9.02;6.72;;;;;;;30.33;63.15;99515.97;5086994;28;20222;-73
2022/08/16 04:50:51;;;;;;;9.00;7.57;;;;;;;30.14;66.27;99530.84;5085115;28;20559;-77
2022/08/16 04:53:18;;;;;;;9.98;7.38;;;;;;;30.35;65.94;99516.72;5069339;28;20214;-77
2022/08/16 04:55:45;;;;;;;11.98;7.57;;;;;;;30.84;63.62;99524.56;5065420;28;20195;-78
2022/08/16 04:58:12;;;;;;;11.93;7.75;;;;;;;30.62;63.38;99527.16;5080349;28;20213;-76
2022/08/16 05:00:39;;;;;;;8.25;7.20;;;;;;;30.19;66.14;99528.66;5074048;28;20202;-77
2022/08/16 05:03:09;;;;;;;10.07;7.35;;;;;;;31.01;64.24;99528.63;5070367;28;20217;-75
2022/08/16 05:05:38;;;;;;;7.68;7.05;;;;;;;31.17;62.39;99505.03;5074694;28;20194;-76
2022/08/16 05:08:07;;;;;;;9.05;7.45;;;;;;;30.39;66.14;99512.81;5083008;28;20256;-75
2022/08/16 05:10:34;;;;;;;9.85;7.50;;;;;;;31.14;63.66;99531.22;5050067;28;20210;-75
2022/08/16 05:13:02;;;;;;;14.13;8.43;;;;;;;31.46;60.67;99529.53;5064169;28;20674;-76
2022/08/16 05:15:29;;;;;;;22.52;15.80;;;;;;;31.28;61.04;99510.41;5075259;28;20198;-75
2022/08/16 05:17:56;;;;;;;11.52;9.02;;;;;;;31.58;60.35;99517.81;5073893;28;20221;-75
2022/08/16 05:20:23;;;;;;;8.35;6.70;;;;;;;30.87;61.94;99516.28;5074025;28;20212;-77
2022/08/16 05:22:50;;;;;;;36.40;23.77;;;;;;;31.34;66.91;99496.50;5077560;28;20591;-79
2022/08/16 05:25:19;;;;;;;8.45;7.65;;;;;;;31.54;59.31;99451.19;5076463;28;20201;-75
2022/08/16 05:27:47;;;;;;;9.90;7.32;;;;;;;31.67;58.99;99510.88;5066229;28;20717;-76
2022/08/16 05:30:14;;;;;;;8.80;7.25;;;;;;;31.80;58.88;99520.47;5067267;28;20202;-75
2022/08/16 05:32:42;;;;;;;9.25;6.43;;;;;;;32.04;59.23;99519.44;5073640;28;20930;-76
2022/08/16 05:35:11;;;;;;;9.35;7.68;;;;;;;31.26;61.99;99512.31;5078017;28;20247;-77
2022/08/16 05:37:39;;;;;;;8.30;6.93;;;;;;;31.25;62.65;99497.22;5073349;28;20230;-76
2022/08/16 05:40:08;;;;;;;10.02;8.18;;;;;;;31.21;62.47;99511.00;5073494;28;20203;-77
2022/08/16 05:42:36;;;;;;;10.15;7.50;;;;;;;29.99;64.70;99433.88;5084158;28;20202;-76
2022/08/16 05:45:04;;;;;;;12.43;7.90;;;;;;;30.76;64.50;99521.59;5073725;28;20202;-75
2022/08/16 05:47:30;;;;;;;9.40;7.53;;;;;;;30.84;63.70;99521.00;5037873;28;20226;-74
2022/08/16 05:49:57;;;;;;;11.57;7.70;;;;;;;30.68;64.19;99520.50;5037925;28;20717;-76
2022/08/16 05:52:24;;;;;;;11.70;7.55;;;;;;;30.15;66.64;99503.97;5073143;28;20222;-76
2022/08/16 05:54:51;;;;;;;9.52;7.35;;;;;;;29.84;66.50;99518.75;5052678;28;20196;-76
2022/08/16 05:57:19;;;;;;;7.90;7.10;;;;;;;29.60;68.21;99519.66;5064728;28;20214;-76
2022/08/16 05:59:48;;;;;;;9.82;8.05;;;;;;;29.81;68.51;99518.94;5068369;28;20200;-75
2022/08/16 06:02:15;;;;;;;12.23;7.43;;;;;;;29.42;71.12;99519.16;5053439;28;20218;-76
2022/08/16 06:04:42;;;;;;;12.95;7.82;;;;;;;29.07;71.74;99526.09;5068640;28;20228;-76
2022/08/16 06:07:09;;;;;;;10.52;7.68;;;;;;;29.17;72.74;99517.34;5053726;28;20210;-76
2022/08/16 06:09:38;;;;;;;8.07;7.32;;;;;;;28.67;73.72;99501.28;5072401;28;20215;-76
2022/08/16 06:12:05;;;;;;;10.95;7.93;;;;;;;28.42;74.35;99467.41;5065662;28;20206;-77
2022/08/16 06:14:32;;;;;;;8.25;7.40;;;;;;;28.85;72.92;99518.72;5063453;28;20207;-77
2022/08/16 06:17:00;;;;;;;7.63;7.00;;;;;;;28.70;74.26;99517.97;5072399;28;20206;-76
2022/08/16 06:19:27;;;;;;;9.98;7.57;;;;;;;28.90;73.70;99514.75;5072239;28;20569;-76
2022/08/16 06:21:54;;;;;;;8.35;7.35;;;;;;;29.36;71.76;99522.28;5058480;28;20195;-76
2022/08/16 06:24:21;;;;;;;11.25;7.38;;;;;;;29.57;71.91;99523.41;5071256;28;20272;-77
2022/08/16 06:26:47;;;;;;;11.43;7.70;;;;;;;29.65;70.24;99526.34;5070396;28;20203;-74
2022/08/16 06:29:14;;;;;;;8.85;7.47;;;;;;;29.63;69.78;99530.97;5052192;28;20230;-75
2022/08/16 06:31:41;;;;;;;8.38;7.50;;;;;;;29.63;70.97;99530.97;5066372;28;20198;-74
2022/08/16 06:34:10;;;;;;;11.25;7.72;;;;;;;29.71;70.41;99522.41;5071996;28;20199;-79
2022/08/16 06:36:36;;;;;;;10.32;8.13;;;;;;;29.70;71.37;99534.91;5071890;28;20257;-74
2022/08/16 06:39:03;;;;;;;9.75;7.47;;;;;;;29.94;70.24;99525.13;5071594;28;20217;-74
2022/08/16 06:41:30;;;;;;;12.25;7.85;;;;;;;30.31;69.21;99527.75;5071772;28;20203;-74
2022/08/16 06:43:57;;;;;;;12.77;7.75;;;;;;;30.47;67.19;99536.34;5071560;28;20214;-77
2022/08/16 06:46:27;;;;;;;14.73;8.25;;;;;;;30.61;69.83;99546.03;5072106;28;20202;-78
2022/08/16 06:48:54;;;;;;;11.50;7.47;;;;;;;30.79;65.91;99540.09;5071536;28;20249;-74
2022/08/16 06:51:22;;;;;;;19.02;7.65;;;;;;;30.60;64.77;99531.78;5071582;28;20206;-76
2022/08/16 06:53:49;;;;;;;10.07;7.55;;;;;;;30.20;64.44;99546.41;5071172;28;20596;-73
2022/08/16 06:56:16;;;;;;;9.15;8.25;;;;;;;29.93;65.09;99523.41;5071899;28;20202;-74
2022/08/16 06:58:43;;;;;;;11.88;8.02;;;;;;;30.29;65.87;99540.38;5071874;28;20211;-74
2022/08/16 07:01:10;;;;;;;9.13;7.57;;;;;;;29.97;66.78;99534.72;5052542;28;20211;-74
2022/08/16 07:03:37;;;;;;;9.80;7.82;;;;;;;30.06;67.07;99535.88;5071484;28;20198;-75
2022/08/16 07:06:04;;;;;;;12.23;8.05;;;;;;;29.82;67.30;99525.97;5071464;28;20209;-75
2022/08/16 07:08:33;;;;;;;11.48;7.05;;;;;;;29.91;66.14;99538.72;5052447;28;20222;-74
2022/08/16 07:11:00;;;;;;;11.55;7.57;;;;;;;29.79;66.48;99536.91;5071702;28;20202;-75
2022/08/16 07:13:28;;;;;;;13.60;7.80;;;;;;;29.98;67.44;99537.31;5071399;28;20194;-74
2022/08/16 07:15:55;;;;;;;8.02;7.30;;;;;;;30.05;66.84;99542.19;5071360;28;20595;-74
2022/08/16 07:18:22;;;;;;;7.82;7.03;;;;;;;30.02;64.17;99533.44;5071203;28;20694;-74
2022/08/16 07:20:50;;;;;;;7.57;6.60;;;;;;;29.42;63.64;99457.72;5035826;28;20193;-74
2022/08/16 07:23:17;;;;;;;7.78;7.05;;;;;;;30.05;64.63;99531.50;5071146;28;20199;-75
2022/08/16 07:25:46;;;;;;;8.73;7.72;;;;;;;30.01;63.93;99514.81;5071127;28;20210;-74
2022/08/16 07:28:15;;;;;;;8.35;7.38;;;;;;;30.37;63.23;99527.28;5070913;28;20654;-74
2022/08/16 07:30:44;;;;;;;8.27;6.72;;;;;;;30.20;64.89;99503.63;5071262;28;20195;-74
2022/08/16 07:33:13;;;;;;;8.40;6.97;;;;;;;30.38;62.73;99527.19;5070664;28;20191;-74
2022/08/16 07:35:41;;;;;;;15.85;7.65;;;;;;;30.33;62.46;99531.16;5070671;28;20207;-74
2022/08/16 07:38:08;;;;;;;12.65;7.85;;;;;;;30.31;63.11;99492.97;5070813;28;20746;-74
2022/08/16 07:40:36;;;;;;;7.93;7.05;;;;;;;30.18;62.52;99521.63;5070746;28;20203;-74
2022/08/16 07:43:05;;;;;;;8.23;7.45;;;;;;;29.98;63.44;99510.56;5070691;28;20242;-74
2022/08/16 07:45:33;;;;;;;9.07;7.53;;;;;;;30.06;64.13;99522.53;5070931;28;20206;-74
2022/08/16 07:48:00;;;;;;;8.02;7.05;;;;;;;30.17;62.96;99534.13;5070539;28;20210;-74
2022/08/16 07:50:28;;;;;;;8.23;7.40;;;;;;;30.57;63.35;99536.53;5070763;28;20206;-74
2022/08/16 07:52:54;;;;;;;9.15;7.07;;;;;;;30.32;63.18;99524.13;5070273;28;20198;-74
2022/08/16 07:55:21;;;;;;;8.13;6.82;;;;;;;30.25;63.01;99541.59;5070373;28;20252;-74
2022/08/16 07:57:48;;;;;;;10.57;7.32;;;;;;;30.15;63.27;99521.81;5070600;28;20191;-74
2022/08/16 08:00:17;;;;;;;8.80;7.03;;;;;;;30.36;62.00;99536.25;5070258;28;20206;-73
2022/08/16 08:02:46;;;;;;;7.30;6.63;;;;;;;30.25;61.29;99512.16;5070405;28;20190;-73
2022/08/16 08:05:13;;;;;;;7.60;6.05;;;;;;;30.30;61.53;99526.91;5070225;28;20205;-73
2022/08/16 08:07:40;;;;;;;7.95;7.13;;;;;;;30.33;61.84;99525.81;5070153;28;20205;-72
2022/08/16 08:10:08;;;;;;;10.30;7.30;;;;;;;30.65;62.24;99526.94;5070114;28;20223;-72
2022/08/16 08:12:36;;;;;;;8.75;6.45;;;;;;;30.54;59.55;99491.28;5070059;28;20210;-73
2022/08/16 08:15:04;;;;;;;8.20;7.38;;;;;;;30.65;58.19;99518.91;5069981;28;20195;-73
2022/08/16 08:17:32;;;;;;;8.00;6.47;;;;;;;30.85;59.22;99517.38;5070419;28;20578;-74
2022/08/16 08:19:59;;;;;;;11.88;6.40;;;;;;;30.93;58.56;99520.28;5070025;28;20203;-73
2022/08/16 08:22:26;;;;;;;7.75;7.00;;;;;;;31.15;57.03;99519.50;5070318;28;20206;-74
2022/08/16 08:24:53;;;;;;;7.75;7.05;;;;;;;31.01;56.93;99515.22;5069874;28;20528;-74
2022/08/16 08:27:20;;;;;;;8.57;6.97;;;;;;;31.02;56.43;99513.41;5067680;28;20209;-74
2022/08/16 08:29:47;;;;;;;9.70;6.65;;;;;;;31.12;55.11;99520.59;5050884;28;20240;-74
2022/08/16 08:32:14;;;;;;;7.47;6.65;;;;;;;31.26;53.91;99509.66;5069796;28;20206;-74
2022/08/16 08:34:42;;;;;;;7.93;7.13;;;;;;;31.29;53.57;99511.22;5034702;28;20197;-74
2022/08/16 08:37:09;;;;;;;8.07;6.38;;;;;;;31.44;52.55;99493.94;5069907;28;20237;-74
2022/08/16 08:39:37;;;;;;;10.02;6.30;;;;;;;31.41;52.87;99504.91;5034561;28;20202;-74
2022/08/16 08:42:04;;;;;;;9.20;6.22;;;;;;;31.65;52.28;99507.44;5069835;28;20230;-75
2022/08/16 08:44:31;;;;;;;7.72;5.70;;;;;;;31.33;51.12;99523.41;5051325;28;20198;-74
2022/08/16 08:46:59;;;;;;;8.50;6.45;;;;;;;31.47;51.00;99510.63;5069254;28;20331;-74
2022/08/16 08:49:26;;;;;;;6.10;5.60;;;;;;;31.32;49.85;99511.00;5069647;28;20233;-75
2022/08/16 08:51:55;;;;;;;7.20;6.25;;;;;;;31.79;49.87;99500.00;5069855;28;20209;-74
2022/08/16 08:54:22;;;;;;;7.45;6.18;;;;;;;31.88;49.29;99510.00;5069827;28;20685;-72
2022/08/16 08:56:50;;;;;;;6.63;5.93;;;;;;;31.92;49.13;99521.31;5070045;28;20195;-74
2022/08/16 08:59:17;;;;;;;6.93;6.00;;;;;;;32.36;49.40;99514.97;5070002;28;20206;-73
2022/08/16 09:01:44;;;;;;;6.55;5.97;;;;;;;32.07;48.53;99503.16;5069740;28;20194;-73
2022/08/16 09:04:12;;;;;;;6.68;6.00;;;;;;;32.31;47.77;99527.94;5052311;28;20229;-74
2022/08/16 09:06:39;;;;;;;6.85;6.15;;;;;;;32.17;48.16;99526.41;5065880;28;20221;-74
2022/08/16 09:09:08;;;;;;;6.57;5.97;;;;;;;32.30;47.38;99507.44;5049660;28;20223;-74
2022/08/16 09:11:36;;;;;;;9.88;6.47;;;;;;;32.41;46.75;99480.53;5065767;28;20201;-74
2022/08/16 09:14:03;;;;;;;7.60;6.70;;;;;;;32.83;46.38;99519.03;5069761;28;20202;-75
2022/08/16 09:16:31;;;;;;;6.45;5.70;;;;;;;32.58;46.60;99509.50;5069566;28;20446;-74
2022/08/16 09:18:59;;;;;;;10.50;6.03;;;;;;;32.66;45.57;99517.78;5069274;28;20203;-74
2022/08/16 09:21:26;;;;;;;6.95;5.68;;;;;;;32.72;45.03;99506.50;5055522;28;20597;-75
2022/08/16 09:23:53;;;;;;;7.15;6.20;;;;;;;32.83;46.35;99509.13;5069568;28;20293;-75
2022/08/16 09:26:23;;;;;;;6.75;6.13;;;;;;;32.70;45.69;99492.38;5069275;28;20198;-75
2022/08/16 09:28:50;;;;;;;8.52;6.60;;;;;;;32.65;45.51;99509.84;5069345;28;20226;-74
2022/08/16 09:31:18;;;;;;;8.70;7.63;;;;;;;32.65;45.72;99509.84;5047444;28;20207;-75
2022/08/16 09:33:46;;;;;;;11.60;6.28;;;;;;;32.72;44.71;99506.50;5058092;28;20198;-74
2022/08/16 09:36:13;;;;;;;7.85;7.07;;;;;;;32.78;45.07;99489.91;5033322;28;20194;-75
2022/08/16 09:38:40;;;;;;;7.72;6.97;;;;;;;33.02;44.96;99503.03;5069271;28;20201;-75
2022/08/16 09:41:10;;;;;;;7.80;6.72;;;;;;;33.34;44.98;99502.94;5069451;28;20213;-75
2022/08/16 09:43:39;;;;;;;9.90;6.97;;;;;;;33.27;44.91;99505.31;5069102;28;20205;-74
2022/08/16 09:46:08;;;;;;;7.40;6.22;;;;;;;33.03;45.20;99498.50;5068747;28;20210;-74
2022/08/16 09:48:40;;;;;;;7.00;6.32;;;;;;;33.20;44.36;99505.97;5069137;28;20194;-74
2022/08/16 09:51:08;;;;;;;6.80;6.20;;;;;;;32.92;44.57;99508.34;5069501;28;20190;-74
2022/08/16 09:53:37;;;;;;;7.25;6.65;;;;;;;33.01;43.44;99479.81;5069323;28;20286;-74
2022/08/16 09:56:10;;;;;;;7.55;6.70;;;;;;;32.86;44.48;99498.13;5069285;28;20195;-74
2022/08/16 09:58:38;;;;;;;8.20;5.90;;;;;;;32.86;44.55;99499.94;5069231;28;20335;-75
2022/08/16 10:01:05;;;;;;;7.05;6.45;;;;;;;32.84;44.70;99489.34;5072915;28;20202;-72
2022/08/16 10:03:32;;;;;;;10.75;7.82;;;;;;;32.99;44.49;99499.75;5072858;28;20202;-74
2022/08/16 10:05:59;;;;;;;11.60;6.88;;;;;;;32.74;44.45;99442.78;5072560;28;20194;-78
2022/08/16 10:08:26;;;;;;;8.65;6.60;;;;;;;33.07;44.83;99516.06;5072680;28;20205;-75
2022/08/16 10:13:42;;;;;;;23.67;11.63;;;;;;;33.53;43.87;99510.22;5042527;28;20193;-75
2022/08/16 10:16:12;;;;;;;7.85;7.07;;;;;;;33.28;43.64;99509.69;5072362;28;20198;-75
2022/08/16 10:18:41;;;;;;;8.18;7.40;;;;;;;33.38;44.13;99493.59;5072177;28;20201;-76
2022/08/16 10:21:08;;;;;;;10.85;7.22;;;;;;;33.67;44.16;99515.25;5072148;28;20198;-75
2022/08/16 10:23:35;;;;;;;8.98;8.18;;;;;;;33.99;43.07;99518.59;5071932;28;20202;-75
2022/08/16 10:26:02;;;;;;;8.02;6.80;;;;;;;33.49;43.82;99495.34;5072062;28;20233;-77
2022/08/16 10:28:30;;;;;;;7.78;6.72;;;;;;;33.87;43.66;99500.84;5072328;28;20200;-75
2022/08/16 10:30:59;;;;;;;7.70;7.10;;;;;;;33.92;42.73;99505.81;5071766;28;20630;-75
2022/08/16 10:33:27;;;;;;;7.95;7.20;;;;;;;33.81;42.90;99518.41;5071796;28;20209;-75
2022/08/16 10:35:55;;;;;;;10.20;7.15;;;;;;;33.84;43.16;99511.88;5071626;28;20194;-75
2022/08/16 10:38:22;;;;;;;7.22;6.53;;;;;;;33.57;42.45;99490.97;5071693;28;20234;-74
2022/08/16 10:40:49;;;;;;;7.45;6.75;;;;;;;33.49;42.55;99480.06;5071915;28;20198;-77
2022/08/16 10:43:16;;;;;;;14.27;8.38;;;;;;;33.87;42.66;99496.31;5036607;28;20190;-75
2022/08/16 10:45:42;;;;;;;47.33;21.35;;;;;;;34.01;43.64;99508.50;5071777;28;20202;-75
2022/08/16 10:48:11;;;;;;;27.80;13.35;;;;;;;34.30;42.05;99505.88;5052684;28;20737;-76
2022/08/16 10:50:38;;;;;;;49.10;20.70;;;;;;;34.19;40.91;99516.78;5071409;28;20316;-74
2022/08/16 10:53:06;;;;;;;16.48;8.63;;;;;;;34.04;40.62;99523.53;5072037;28;20221;-74
2022/08/16 10:55:35;;;;;;;10.55;6.82;;;;;;;34.51;39.59;99513.81;5071858;28;20224;-74
2022/08/16 10:58:03;;;;;;;8.50;7.65;;;;;;;34.47;39.74;99498.91;5071665;28;20198;-75
2022/08/16 11:00:34;;;;;;;7.32;6.60;;;;;;;34.39;39.50;99513.09;5036007;28;20210;-76
2022/08/16 11:03:02;;;;;;;9.40;6.65;;;;;;;34.62;39.89;99489.41;5071388;28;20198;-73
2022/08/16 11:05:33;;;;;;;7.90;5.90;;;;;;;34.98;39.28;99501.28;5071763;28;20279;-78
2022/08/16 11:08:01;;;;;;;8.20;6.13;;;;;;;34.78;38.76;99498.63;5071807;28;20591;-78
2022/08/16 11:10:31;;;;;;;10.30;6.45;;;;;;;34.57;38.90;99462.09;5071080;28;20222;-78
2022/08/16 11:12:58;;;;;;;6.93;6.32;;;;;;;35.14;38.27;99488.09;5071342;28;20674;-76
2022/08/16 11:15:25;;;;;;;6.88;6.18;;;;;;;35.20;37.60;99487.50;5071729;28;20202;-77
2022/08/16 11:17:53;;;;;;;6.45;5.85;;;;;;;34.73;36.09;99462.34;5071304;28;20228;-78
2022/08/16 11:20:20;;;;;;;6.45;5.50;;;;;;;34.99;36.47;99476.91;5071600;28;20206;-78
2022/08/16 11:22:50;;;;;;;5.78;5.28;;;;;;;34.72;36.48;99493.81;5071320;28;20202;-77
2022/08/16 11:25:21;;;;;;;9.43;5.57;;;;;;;34.82;35.96;99473.09;5035800;28;20194;-78
2022/08/16 11:27:48;;;;;;;6.72;5.78;;;;;;;34.86;35.78;99457.47;5036072;28;20198;-78
2022/08/16 11:30:16;;;;;;;6.00;5.40;;;;;;;35.05;35.68;99470.06;5070731;28;20229;-78
2022/08/16 11:32:43;;;;;;;5.32;4.93;;;;;;;35.19;36.10;99469.59;5071098;28;20663;-78